createdAt,value
2022-12-18T00:02:02.702Z,973.67
2022-12-18T00:07:04.604Z,973.63
2022-12-18T00:17:08.641Z,973.64
2022-12-18T00:22:10.035Z,973.66
2022-12-18T00:27:11.127Z,973.65
2022-12-18T00:32:12.960Z,973.78
2022-12-18T00:37:19.826Z,973.82
2022-12-18T00:42:15.942Z,973.97
2022-12-18T00:47:17.656Z,973.99
2022-12-18T00:52:18.774Z,974.06
2022-12-18T00:57:20.598Z,974.18
2022-12-18T01:02:22.167Z,974.14
2022-12-18T01:07:24.070Z,974.07
2022-12-18T01:12:25.421Z,974.05
2022-12-18T01:17:26.756Z,974.1
2022-12-18T01:22:28.865Z,974.24
2022-12-18T01:27:30.898Z,974.37
2022-12-18T01:32:32.252Z,974.47
2022-12-18T01:37:34.321Z,974.68
2022-12-18T01:42:36.162Z,974.72
2022-12-18T01:47:38.191Z,974.66
2022-12-18T01:52:39.600Z,974.65
2022-12-18T01:57:41.686Z,974.66
2022-12-18T02:02:43.131Z,974.54
2022-12-18T02:07:44.823Z,974.46
2022-12-18T02:12:46.210Z,974.38
2022-12-18T02:17:47.897Z,974.43
2022-12-18T02:22:49.733Z,974.42
2022-12-18T02:27:52.082Z,974.39
2022-12-18T02:32:54.037Z,974.37
2022-12-18T02:37:55.846Z,974.37
2022-12-18T02:42:57.990Z,974.38
2022-12-18T02:47:59.669Z,974.32
2022-12-18T02:53:01.500Z,974.35
2022-12-18T02:58:03.178Z,974.36
2022-12-18T03:03:04.205Z,974.38
2022-12-18T03:08:05.656Z,974.32
2022-12-18T03:13:07.007Z,974.26
2022-12-18T03:18:08.487Z,974.27
2022-12-18T03:23:10.610Z,974.28
2022-12-18T03:28:12.777Z,974.32
2022-12-18T03:33:14.410Z,974.35
2022-12-18T03:38:16.331Z,974.4
2022-12-18T03:43:18.090Z,974.45
2022-12-18T03:48:19.707Z,974.48
2022-12-18T03:53:20.906Z,974.29
2022-12-18T03:58:22.981Z,974.3
2022-12-18T04:03:26.526Z,974.43
2022-12-18T04:08:25.558Z,974.46
2022-12-18T04:13:27.341Z,974.42
2022-12-18T04:18:28.674Z,974.29
2022-12-18T04:23:30.152Z,974.34
2022-12-18T04:28:37.049Z,974.5
2022-12-18T04:33:32.872Z,974.54
2022-12-18T04:38:34.947Z,974.58
2022-12-18T04:43:36.661Z,974.55
2022-12-18T04:48:37.753Z,974.61
2022-12-18T04:53:39.171Z,974.58
2022-12-18T04:58:40.720Z,974.72
2022-12-18T05:03:42.723Z,974.82
2022-12-18T05:08:44.214Z,974.75
2022-12-18T05:13:46.024Z,974.67
2022-12-18T05:18:48.174Z,974.72
2022-12-18T05:23:49.791Z,974.66
2022-12-18T05:28:51.565Z,974.86
2022-12-18T05:33:53.318Z,974.79
2022-12-18T05:38:54.883Z,974.88
2022-12-18T05:43:56.052Z,974.8
2022-12-18T05:48:58.003Z,974.85
2022-12-18T05:53:59.171Z,974.91
2022-12-18T05:59:00.961Z,974.94
2022-12-18T06:04:02.457Z,974.99
2022-12-18T06:09:03.730Z,975.01
2022-12-18T06:09:09.940Z,975.02
2022-12-18T06:14:11.175Z,975.07
2022-12-18T06:19:12.997Z,974.99
2022-12-18T06:24:14.892Z,974.98
2022-12-18T06:29:16.857Z,975.1
2022-12-18T06:34:18.339Z,975.12
2022-12-18T06:39:19.601Z,975.21
2022-12-18T06:44:21.106Z,975.26
2022-12-18T06:49:26.172Z,975.34
2022-12-18T06:54:24.635Z,975.42
2022-12-18T06:59:26.329Z,975.44
2022-12-18T07:04:28.033Z,975.43
2022-12-18T07:09:29.139Z,975.58
2022-12-18T07:14:31.003Z,975.64
2022-12-18T07:19:32.883Z,975.66
2022-12-18T07:24:34.732Z,975.73
2022-12-18T07:29:36.455Z,975.8
2022-12-18T07:34:38.074Z,975.7
2022-12-18T07:39:39.128Z,975.66
2022-12-18T07:44:40.358Z,975.73
2022-12-18T07:49:42.146Z,975.81
2022-12-18T07:54:43.599Z,975.76
2022-12-18T07:59:45.483Z,975.84
2022-12-18T08:04:47.766Z,975.75
2022-12-18T08:09:49.397Z,975.83
2022-12-18T08:14:50.630Z,975.91
2022-12-18T08:19:52.492Z,975.95
2022-12-18T08:24:54.063Z,976.01
2022-12-18T08:29:55.328Z,976.06
2022-12-18T08:34:56.748Z,976.06
2022-12-18T08:39:57.953Z,976
2022-12-18T08:44:59.193Z,976.06
2022-12-18T08:50:01.194Z,976.18
2022-12-18T08:55:02.393Z,976.1
2022-12-18T09:00:04.591Z,976.16
2022-12-18T09:05:06.869Z,976.23
2022-12-18T09:10:08.185Z,976.29
2022-12-18T09:15:10.139Z,976.24
2022-12-18T09:20:11.956Z,976.18
2022-12-18T09:25:13.271Z,976.12
2022-12-18T09:30:15.230Z,976.17
2022-12-18T09:35:17.288Z,976.11
2022-12-18T09:40:18.833Z,976.08
2022-12-18T09:45:20.087Z,976.17
2022-12-18T09:50:22.485Z,976.09
2022-12-18T09:55:23.891Z,975.99
2022-12-18T10:00:25.748Z,976
2022-12-18T10:05:27.451Z,976
2022-12-18T10:10:29.266Z,975.87
2022-12-18T10:15:30.582Z,975.84
2022-12-18T10:20:32.399Z,975.86
2022-12-18T10:25:34.296Z,975.81
2022-12-18T10:30:35.892Z,975.76
2022-12-18T10:35:37.583Z,975.66
2022-12-18T10:40:38.841Z,975.67
2022-12-18T10:45:40.476Z,975.66
2022-12-18T10:51:10.147Z,975.73
2022-12-18T11:25:53.321Z,975.8
2022-12-18T11:30:55.286Z,975.78
2022-12-18T11:40:57.934Z,975.64
2022-12-18T11:46:00.114Z,975.59
2022-12-18T11:56:03.387Z,975.57
2022-12-18T12:01:04.955Z,975.5
2022-12-18T12:11:07.421Z,975.39
2022-12-18T12:16:09.593Z,975.4
2022-12-18T12:26:12.749Z,975.3
2022-12-18T12:31:14.087Z,975.23
2022-12-18T12:36:15.451Z,975.14
2022-12-18T12:41:17.407Z,975.14
2022-12-18T12:46:19.658Z,975.15
2022-12-18T12:51:20.995Z,975.16
2022-12-18T12:56:22.884Z,975.28
2022-12-18T13:01:24.804Z,975.22
2022-12-18T13:06:25.944Z,975.19
2022-12-18T13:11:27.294Z,975.31
2022-12-18T13:16:29.306Z,975.35
2022-12-18T13:21:31.026Z,975.41
2022-12-18T13:26:32.298Z,975.38
2022-12-18T13:31:33.924Z,975.34
2022-12-18T13:36:36.118Z,975.31
2022-12-18T13:41:37.137Z,975.21
2022-12-18T13:46:39.143Z,975.26
2022-12-18T13:51:40.932Z,975.12
2022-12-18T13:56:42.354Z,975.05
2022-12-18T14:01:43.760Z,975.06
2022-12-18T14:06:45.195Z,975.13
2022-12-18T14:11:46.235Z,975.16
2022-12-18T14:16:48.152Z,975.15
2022-12-18T14:21:50.409Z,975.25
2022-12-18T14:26:51.488Z,975.37
2022-12-18T14:31:53.463Z,975.37
2022-12-18T14:37:00.793Z,975.33
2022-12-18T14:41:56.594Z,975.32
2022-12-18T14:46:58.716Z,975.29
2022-12-18T14:51:59.928Z,975.26
2022-12-18T14:57:02.047Z,975.29
2022-12-18T15:02:03.467Z,975.22
2022-12-18T15:07:04.580Z,975.14
2022-12-18T15:12:06.276Z,975.18
2022-12-18T15:17:08.296Z,975.16
2022-12-18T15:22:10.356Z,975.17
2022-12-18T15:27:11.740Z,975.19
2022-12-18T15:32:13.154Z,975.18
2022-12-18T15:37:14.656Z,975.26
2022-12-18T15:42:16.588Z,975.22
2022-12-18T15:47:17.949Z,975.23
2022-12-18T15:52:19.357Z,975.21
2022-12-18T15:57:21.276Z,975.25
2022-12-18T16:02:22.764Z,975.21
2022-12-18T16:07:24.719Z,975.21
2022-12-18T16:12:26.302Z,975.12
2022-12-18T16:17:28.130Z,975.21
2022-12-18T16:22:30.227Z,975.14
2022-12-18T16:27:37.972Z,975.13
2022-12-18T16:32:34.039Z,975.13
2022-12-18T16:37:35.936Z,975.09
2022-12-18T16:42:37.847Z,975.08
2022-12-18T16:47:39.705Z,975.1
2022-12-18T16:52:41.666Z,975.06
2022-12-18T16:57:43.611Z,975.05
2022-12-18T17:02:45.778Z,975.08
2022-12-18T17:07:47.031Z,975.11
2022-12-18T17:12:48.911Z,975.08
2022-12-18T17:17:50.271Z,975.11
2022-12-18T17:22:51.722Z,975.02
2022-12-18T17:27:53.741Z,974.97
2022-12-18T17:32:55.457Z,975.01
2022-12-18T17:37:56.677Z,974.94
2022-12-18T17:42:58.266Z,975.03
2022-12-18T17:48:00.376Z,975.11
2022-12-18T17:53:02.282Z,975.13
2022-12-18T17:58:04.439Z,975.05
2022-12-18T18:03:06.182Z,975.07
2022-12-18T18:08:07.841Z,975
2022-12-18T18:13:09.837Z,975.06
2022-12-18T18:18:11.726Z,975.01
2022-12-18T18:23:13.032Z,975.02
2022-12-18T18:28:14.731Z,974.97
2022-12-18T18:33:16.517Z,974.97
2022-12-18T18:38:18.193Z,974.88
2022-12-18T18:43:19.575Z,974.92
2022-12-18T18:48:21.258Z,974.97
2022-12-18T18:53:22.672Z,974.9
2022-12-18T18:58:24.339Z,974.83
2022-12-18T19:03:25.702Z,974.79
2022-12-18T19:08:26.783Z,974.73
2022-12-18T19:13:28.063Z,974.75
2022-12-18T19:18:29.925Z,974.72
2022-12-18T19:23:30.972Z,974.77
2022-12-18T19:28:32.633Z,974.78
2022-12-18T19:33:42.996Z,974.7
2022-12-18T19:38:35.499Z,974.65
2022-12-18T19:43:37.439Z,974.64
2022-12-18T19:48:39.117Z,974.75
2022-12-18T19:53:40.614Z,974.73
2022-12-18T19:58:42.978Z,974.76
2022-12-18T20:03:45.449Z,974.73
2022-12-18T20:08:45.557Z,974.71
2022-12-18T20:13:47.472Z,974.62
2022-12-18T20:18:49.183Z,974.5
2022-12-18T20:23:51.181Z,974.41
2022-12-18T20:28:53.086Z,974.37
2022-12-18T20:33:57.624Z,974.34
2022-12-18T20:38:57.372Z,974.36
2022-12-18T20:43:58.188Z,974.36
2022-12-18T20:48:59.775Z,974.38
2022-12-18T20:54:00.821Z,974.45
2022-12-18T20:59:02.373Z,974.41
2022-12-18T21:04:04.266Z,974.3
2022-12-18T21:09:05.394Z,974.17
2022-12-18T21:14:07.446Z,974.33
2022-12-18T21:19:09.317Z,974.35
2022-12-18T21:24:10.975Z,974.25
2022-12-18T21:29:12.987Z,974.18
2022-12-18T21:34:14.592Z,974.2
2022-12-18T21:39:16.027Z,974.03
2022-12-18T21:44:17.303Z,974.06
2022-12-18T21:49:19.075Z,973.97
2022-12-18T21:54:20.344Z,974.05
2022-12-18T21:59:21.804Z,974.03
2022-12-18T22:04:23.854Z,974.03
2022-12-18T22:09:25.215Z,974.29
2022-12-18T22:14:27.233Z,974.24
2022-12-18T22:19:29.123Z,974.35
2022-12-18T22:24:30.341Z,974.08
2022-12-18T22:29:31.447Z,973.93
2022-12-18T22:34:36.361Z,974.06
2022-12-18T22:39:35.416Z,974.01
2022-12-18T22:44:37.371Z,973.92
2022-12-18T22:49:38.795Z,973.79
2022-12-18T22:54:40.362Z,973.88
2022-12-18T22:59:48.071Z,973.92
2022-12-18T23:04:49.701Z,973.79
2022-12-18T23:09:51.263Z,973.7
2022-12-18T23:14:52.626Z,973.62
2022-12-18T23:19:54.895Z,973.62
2022-12-18T23:24:56.124Z,973.52
2022-12-18T23:29:57.707Z,973.41
2022-12-18T23:34:59.365Z,973.38
2022-12-18T23:40:01.246Z,973.17
2022-12-18T23:45:03.842Z,973.41
2022-12-18T23:50:04.694Z,973.21
2022-12-18T23:55:06.689Z,973.26
